createdAt,value
2023-03-19T00:01:16.987Z,5.66
2023-03-19T00:03:45.786Z,5.63
2023-03-19T00:06:14.722Z,5.66
2023-03-19T00:08:42.435Z,5.65
2023-03-19T00:11:14.516Z,5.61
2023-03-19T00:13:42.165Z,5.61
2023-03-19T00:16:10.872Z,5.57
2023-03-19T00:18:39.016Z,5.56
2023-03-19T00:21:07.453Z,5.50
2023-03-19T00:23:36.908Z,5.46
2023-03-19T00:26:04.849Z,5.40
2023-03-19T00:28:33.814Z,5.37
2023-03-19T00:31:16.627Z,5.30
2023-03-19T00:33:46.599Z,5.26
2023-03-19T00:36:14.154Z,5.21
2023-03-19T00:38:46.909Z,5.18
2023-03-19T00:41:18.412Z,5.14
2023-03-19T00:43:54.370Z,5.12
2023-03-19T00:46:25.794Z,5.08
2023-03-19T00:48:55.866Z,5.04
2023-03-19T00:51:26.567Z,5.00
2023-03-19T00:53:56.676Z,4.97
2023-03-19T00:56:26.474Z,4.93
2023-03-19T00:58:57.499Z,4.89
2023-03-19T01:01:27.997Z,4.86
2023-03-19T01:03:59.194Z,4.83
2023-03-19T01:06:28.521Z,4.80
2023-03-19T01:08:58.373Z,4.76
2023-03-19T01:11:28.679Z,4.74
2023-03-19T01:13:58.448Z,4.71
2023-03-19T01:16:29.015Z,4.69
2023-03-19T01:18:58.618Z,4.67
2023-03-19T01:21:31.120Z,4.67
2023-03-19T01:24:01.275Z,4.65
2023-03-19T01:26:31.395Z,4.65
2023-03-19T01:29:01.102Z,4.64
2023-03-19T01:31:31.335Z,4.63
2023-03-19T01:34:01.878Z,4.60
2023-03-19T01:36:31.490Z,4.60
2023-03-19T01:39:01.095Z,4.60
2023-03-19T01:41:31.304Z,4.64
2023-03-19T01:44:01.608Z,4.65
2023-03-19T01:46:38.573Z,4.65
2023-03-19T01:49:12.153Z,4.64
2023-03-19T01:51:46.411Z,4.62
2023-03-19T01:54:24.105Z,4.60
2023-03-19T01:57:09.967Z,4.59
2023-03-19T01:59:53.903Z,4.59
2023-03-19T02:02:34.536Z,4.60
2023-03-19T02:05:14.841Z,4.62
2023-03-19T02:07:46.641Z,4.64
2023-03-19T02:10:21.101Z,4.67
2023-03-19T02:12:50.737Z,4.70
2023-03-19T02:15:21.172Z,4.76
2023-03-19T02:17:51.129Z,4.79
2023-03-19T02:20:30.991Z,4.82
2023-03-19T02:23:52.081Z,4.88
2023-03-19T02:26:29.043Z,4.94
2023-03-19T02:28:59.425Z,4.99
2023-03-19T02:31:29.495Z,5.02
2023-03-19T02:34:20.534Z,5.07
2023-03-19T02:37:09.243Z,5.12
2023-03-19T02:40:01.752Z,5.18
2023-03-19T02:42:31.970Z,5.22
2023-03-19T02:45:02.079Z,5.26
2023-03-19T02:47:32.182Z,5.33
2023-03-19T02:50:02.397Z,5.38
2023-03-19T02:52:32.442Z,5.37
2023-03-19T02:55:03.096Z,5.35
2023-03-19T02:57:33.117Z,5.30
2023-03-19T03:00:06.832Z,5.28
2023-03-19T03:02:37.263Z,5.27
2023-03-19T03:05:09.313Z,5.23
2023-03-19T03:07:40.445Z,5.19
2023-03-19T03:10:11.928Z,5.18
2023-03-19T03:12:42.106Z,5.35
2023-03-19T03:15:12.757Z,5.53
2023-03-19T03:17:45.673Z,5.49
2023-03-19T03:20:19.936Z,5.41
2023-03-19T03:22:50.245Z,5.36
2023-03-19T03:25:21.248Z,5.31
2023-03-19T03:27:51.122Z,5.25
2023-03-19T03:30:19.123Z,5.27
2023-03-19T03:32:47.696Z,5.30
2023-03-19T03:35:21.948Z,5.29
2023-03-19T03:37:52.246Z,5.25
2023-03-19T03:40:21.976Z,5.22
2023-03-19T03:42:52.355Z,5.16
2023-03-19T03:45:22.266Z,5.13
2023-03-19T03:47:52.506Z,5.09
2023-03-19T03:50:22.561Z,5.24
2023-03-19T03:52:52.667Z,5.15
2023-03-19T03:55:22.779Z,5.16
2023-03-19T03:57:52.832Z,5.15
2023-03-19T04:00:22.984Z,5.08
2023-03-19T04:02:53.713Z,5.00
2023-03-19T04:05:23.538Z,4.94
2023-03-19T04:07:53.776Z,5.03
2023-03-19T04:10:24.386Z,4.96
2023-03-19T04:12:54.133Z,4.91
2023-03-19T04:15:24.265Z,4.90
2023-03-19T04:17:52.682Z,4.87
2023-03-19T04:20:22.855Z,4.89
2023-03-19T04:22:52.449Z,4.89
2023-03-19T04:25:20.978Z,4.89
2023-03-19T04:27:49.317Z,4.89
2023-03-19T04:30:18.046Z,4.93
2023-03-19T04:32:46.671Z,4.95
2023-03-19T04:35:15.009Z,4.96
2023-03-19T04:37:48.593Z,4.96
2023-03-19T04:40:18.565Z,4.97
2023-03-19T04:42:48.144Z,4.98
2023-03-19T04:45:19.310Z,5.01
2023-03-19T04:47:48.479Z,5.01
2023-03-19T04:50:19.161Z,5.04
2023-03-19T04:52:48.474Z,5.06
2023-03-19T04:55:18.738Z,5.10
2023-03-19T04:57:48.768Z,5.13
2023-03-19T05:00:20.604Z,5.13
2023-03-19T05:02:50.291Z,5.14
2023-03-19T05:05:20.196Z,5.17
2023-03-19T05:07:48.559Z,5.23
2023-03-19T05:10:17.218Z,5.26
2023-03-19T05:12:45.468Z,5.44
2023-03-19T05:15:16.445Z,5.58
2023-03-19T05:17:45.272Z,5.60
2023-03-19T05:20:15.719Z,5.69
2023-03-19T05:22:45.226Z,5.64
2023-03-19T05:25:13.818Z,5.72
2023-03-19T05:27:42.416Z,5.89
2023-03-19T05:30:12.416Z,5.71
2023-03-19T05:32:41.711Z,5.63
2023-03-19T05:35:11.378Z,5.60
2023-03-19T05:37:40.771Z,5.63
2023-03-19T05:40:12.611Z,5.79
2023-03-19T05:42:43.200Z,5.76
2023-03-19T05:45:12.978Z,5.74
2023-03-19T05:47:44.987Z,5.74
2023-03-19T05:50:13.603Z,5.79
2023-03-19T05:52:43.552Z,5.86
2023-03-19T05:55:13.098Z,5.85
2023-03-19T05:57:43.054Z,5.83
2023-03-19T06:00:14.920Z,5.93
2023-03-19T06:02:44.967Z,6.09
2023-03-19T06:05:14.497Z,6.16
2023-03-19T06:07:44.423Z,6.24
2023-03-19T06:10:14.660Z,6.29
2023-03-19T06:12:44.296Z,6.22
2023-03-19T06:15:13.888Z,6.25
2023-03-19T06:17:44.757Z,6.28
2023-03-19T06:20:15.095Z,6.47
2023-03-19T06:22:45.416Z,6.58
2023-03-19T06:25:16.172Z,6.63
2023-03-19T06:27:45.315Z,6.74
2023-03-19T06:30:15.611Z,6.73
2023-03-19T06:32:45.722Z,6.78
2023-03-19T06:35:15.535Z,6.78
2023-03-19T06:37:45.430Z,6.95
2023-03-19T06:40:15.534Z,6.90
2023-03-19T06:42:48.101Z,6.89
2023-03-19T06:45:19.464Z,6.81
2023-03-19T06:47:51.104Z,6.86
2023-03-19T06:50:22.114Z,6.88
2023-03-19T06:52:52.146Z,6.88
2023-03-19T06:55:21.750Z,6.91
2023-03-19T06:57:51.555Z,7.02
2023-03-19T07:00:21.896Z,7.11
2023-03-19T07:02:51.957Z,7.09
2023-03-19T07:05:21.571Z,7.07
2023-03-19T07:07:51.759Z,7.16
2023-03-19T07:10:22.640Z,7.13
2023-03-19T07:12:52.698Z,7.05
2023-03-19T07:15:22.456Z,7.04
2023-03-19T07:17:52.237Z,7.03
2023-03-19T07:20:22.035Z,7.21
2023-03-19T07:22:54.700Z,7.27
2023-03-19T07:25:22.801Z,7.39
2023-03-19T07:27:50.408Z,7.55
2023-03-19T07:30:19.320Z,7.74
2023-03-19T07:32:47.710Z,7.90
2023-03-19T07:35:16.103Z,8.23
2023-03-19T07:37:44.244Z,8.76
2023-03-19T07:40:13.615Z,9.11
2023-03-19T07:42:42.311Z,9.15
2023-03-19T07:45:13.501Z,9.29
2023-03-19T07:47:41.106Z,9.46
2023-03-19T07:50:11.122Z,9.23
2023-03-19T07:52:41.278Z,9.47
2023-03-19T07:55:11.419Z,10.29
2023-03-19T07:57:39.413Z,10.85
2023-03-19T08:00:10.817Z,11.26
2023-03-19T08:02:39.887Z,11.80
2023-03-19T08:05:08.070Z,12.01
2023-03-19T08:07:38.499Z,11.76
2023-03-19T08:10:09.976Z,11.37
2023-03-19T08:12:42.806Z,11.34
2023-03-19T08:15:12.966Z,11.42
2023-03-19T08:17:42.441Z,11.24
2023-03-19T08:20:16.862Z,11.08
2023-03-19T08:22:51.150Z,11.04
2023-03-19T08:25:21.586Z,10.57
2023-03-19T08:27:51.389Z,10.13
2023-03-19T08:30:21.462Z,9.97
2023-03-19T08:32:51.355Z,9.72
2023-03-19T08:35:21.439Z,9.46
2023-03-19T08:37:51.199Z,9.41
2023-03-19T08:40:22.210Z,9.63
2023-03-19T08:42:52.041Z,9.47
2023-03-19T08:45:22.476Z,9.25
2023-03-19T08:47:52.208Z,9.05
2023-03-19T08:50:22.241Z,8.63
2023-03-19T08:52:50.992Z,8.18
2023-03-19T08:55:19.270Z,7.89
2023-03-19T08:57:47.589Z,7.81
2023-03-19T09:00:17.341Z,7.87
2023-03-19T09:02:47.357Z,7.83
2023-03-19T09:05:16.409Z,7.65
2023-03-19T09:07:44.310Z,7.57
2023-03-19T09:10:12.815Z,7.47
2023-03-19T09:12:41.059Z,7.66
2023-03-19T09:15:10.167Z,7.88
2023-03-19T09:17:37.849Z,8.05
2023-03-19T09:20:07.596Z,8.09
2023-03-19T09:22:34.691Z,8.12
2023-03-19T09:25:03.818Z,8.08
2023-03-19T09:27:31.765Z,8.03
2023-03-19T09:29:59.989Z,7.96
2023-03-19T09:32:28.467Z,7.91
2023-03-19T09:34:57.519Z,7.75
2023-03-19T09:37:25.731Z,7.70
2023-03-19T09:39:53.615Z,7.72
2023-03-19T09:43:18.404Z,7.84
2023-03-19T09:45:50.066Z,7.92
2023-03-19T09:48:40.940Z,8.17
2023-03-19T09:52:03.650Z,8.43
2023-03-19T09:54:53.241Z,8.92
2023-03-19T09:57:23.367Z,8.76
2023-03-19T09:59:54.893Z,8.73
2023-03-19T10:02:44.358Z,8.82
2023-03-19T10:06:09.543Z,8.80
2023-03-19T10:09:13.363Z,8.84
2023-03-19T10:13:01.746Z,8.91
2023-03-19T10:15:38.472Z,9.04
2023-03-19T10:18:28.320Z,9.19
2023-03-19T10:21:15.389Z,9.38
2023-03-19T10:24:11.254Z,9.56
2023-03-19T10:26:43.975Z,9.78
2023-03-19T10:29:23.708Z,9.83
2023-03-19T10:32:24.698Z,9.96
2023-03-19T10:34:54.615Z,10.27
2023-03-19T10:37:29.977Z,10.48
2023-03-19T10:40:02.154Z,10.74
2023-03-19T10:43:21.045Z,10.99
2023-03-19T10:45:51.354Z,11.55
2023-03-19T10:48:28.335Z,11.98
2023-03-19T10:51:04.516Z,11.80
2023-03-19T10:53:37.435Z,12.02
2023-03-19T10:56:23.093Z,12.59
2023-03-19T10:59:20.785Z,12.66
2023-03-19T11:01:58.801Z,12.63
2023-03-19T11:04:29.820Z,12.60
2023-03-19T11:07:18.180Z,12.66
2023-03-19T11:09:55.446Z,13.01
2023-03-19T11:12:37.586Z,13.17
2023-03-19T11:15:26.450Z,13.14
2023-03-19T11:18:06.261Z,13.26
2023-03-19T11:20:39.261Z,13.41
2023-03-19T11:23:18.059Z,13.50
2023-03-19T11:25:54.401Z,13.52
2023-03-19T11:28:32.874Z,13.55
2023-03-19T11:31:24.267Z,13.45
2023-03-19T11:34:22.579Z,13.59
2023-03-19T11:37:46.967Z,14.06
2023-03-19T11:40:53.860Z,14.34
2023-03-19T11:43:56.278Z,14.40
2023-03-19T11:47:03.968Z,14.20
2023-03-19T11:49:52.200Z,14.28
2023-03-19T11:52:54.474Z,14.28
2023-03-19T11:55:42.338Z,14.19
2023-03-19T11:58:43.103Z,14.27
2023-03-19T12:01:42.650Z,14.18
2023-03-19T12:04:24.904Z,14.23
2023-03-19T12:07:35.657Z,14.19
2023-03-19T12:11:20.998Z,14.41
2023-03-19T12:14:22.084Z,14.31
2023-03-19T12:17:43.893Z,14.44
2023-03-19T12:20:32.572Z,14.62
2023-03-19T12:23:54.755Z,14.35
2023-03-19T12:27:19.924Z,14.47
2023-03-19T12:30:39.715Z,14.93
2023-03-19T12:33:30.516Z,14.97
2023-03-19T12:36:11.966Z,14.98
2023-03-19T12:39:16.520Z,15.10
2023-03-19T12:41:52.565Z,15.32
2023-03-19T12:44:37.739Z,15.46
2023-03-19T12:47:28.456Z,15.41
2023-03-19T12:50:17.338Z,15.45
2023-03-19T12:52:58.584Z,15.66
2023-03-19T12:55:55.737Z,15.53
2023-03-19T12:59:30.354Z,15.77
2023-03-19T13:02:45.488Z,15.69
2023-03-19T13:05:15.450Z,15.96
2023-03-19T13:08:32.726Z,16.27
2023-03-19T13:11:46.844Z,16.10
2023-03-19T13:14:53.933Z,16.31
2023-03-19T13:17:57.960Z,16.18
2023-03-19T13:21:22.589Z,16.35
2023-03-19T13:24:26.184Z,16.41
2023-03-19T13:27:03.632Z,16.54
2023-03-19T13:29:37.571Z,16.47
2023-03-19T13:32:42.067Z,16.40
2023-03-19T13:35:52.407Z,16.55
2023-03-19T13:38:39.634Z,16.67
2023-03-19T13:41:42.531Z,16.51
2023-03-19T13:44:35.114Z,16.26
2023-03-19T13:47:29.258Z,16.26
2023-03-19T13:50:19.435Z,16.44
2023-03-19T13:53:12.408Z,16.54
2023-03-19T13:55:55.027Z,16.36
2023-03-19T13:58:48.376Z,16.32
2023-03-19T14:01:26.917Z,16.53
2023-03-19T14:04:16.568Z,16.46
2023-03-19T14:07:10.709Z,16.49
2023-03-19T14:10:04.810Z,16.49
2023-03-19T14:12:44.055Z,16.37
2023-03-19T14:15:16.082Z,16.45
2023-03-19T14:17:57.668Z,16.46
2023-03-19T14:21:07.112Z,16.59
2023-03-19T14:23:53.268Z,16.78
2023-03-19T14:26:31.605Z,17.09
2023-03-19T14:29:07.366Z,17.36
2023-03-19T14:31:43.413Z,17.67
2023-03-19T14:34:41.840Z,17.59
2023-03-19T14:37:36.309Z,17.41
2023-03-19T14:40:41.313Z,16.98
2023-03-19T14:43:59.475Z,16.77
2023-03-19T14:47:09.400Z,16.26
2023-03-19T14:50:50.604Z,16.31
2023-03-19T14:53:46.517Z,16.20
2023-03-19T14:56:34.390Z,15.97
2023-03-19T14:59:06.496Z,15.99
2023-03-19T15:01:49.447Z,16.07
2023-03-19T15:04:26.337Z,15.97
2023-03-19T15:07:04.530Z,15.80
2023-03-19T15:09:35.333Z,15.78
2023-03-19T15:12:17.904Z,15.73
2023-03-19T15:15:36.763Z,15.67
2023-03-19T15:18:13.541Z,15.57
2023-03-19T15:20:51.061Z,15.51
2023-03-19T15:23:28.460Z,15.42
2023-03-19T15:26:08.692Z,15.35
2023-03-19T15:28:53.800Z,15.24
2023-03-19T15:31:51.478Z,15.21
2023-03-19T15:34:29.109Z,15.19
2023-03-19T15:37:15.479Z,15.23
2023-03-19T15:39:56.173Z,15.42
2023-03-19T15:42:30.859Z,15.37
2023-03-19T15:45:18.962Z,15.30
2023-03-19T15:48:06.000Z,15.16
2023-03-19T15:50:46.287Z,15.16
2023-03-19T15:53:29.610Z,15.03
2023-03-19T15:56:05.375Z,14.90
2023-03-19T15:58:53.160Z,14.81
2023-03-19T16:01:26.320Z,14.69
2023-03-19T16:04:23.443Z,14.71
2023-03-19T16:06:53.744Z,14.73
2023-03-19T16:09:34.541Z,14.77
2023-03-19T16:12:02.287Z,14.84
2023-03-19T16:14:43.938Z,14.69
2023-03-19T16:17:20.372Z,14.78
2023-03-19T16:19:58.529Z,14.57
2023-03-19T16:22:34.685Z,14.34
2023-03-19T16:25:06.945Z,14.14
2023-03-19T16:27:41.119Z,14.21
2023-03-19T16:30:31.012Z,14.10
2023-03-19T16:33:07.216Z,13.89
2023-03-19T16:35:38.366Z,13.77
2023-03-19T16:38:25.292Z,13.68
2023-03-19T16:41:32.499Z,13.61
2023-03-19T16:44:18.093Z,13.40
2023-03-19T16:46:48.215Z,13.27
2023-03-19T16:49:16.580Z,13.11
2023-03-19T16:51:45.005Z,13.00
2023-03-19T16:54:14.295Z,12.93
2023-03-19T16:56:41.893Z,12.82
2023-03-19T16:59:30.904Z,12.73
2023-03-19T17:02:01.358Z,12.67
2023-03-19T17:04:31.725Z,12.58
2023-03-19T17:07:01.720Z,12.44
2023-03-19T17:09:30.165Z,12.31
2023-03-19T17:12:01.404Z,12.18
2023-03-19T17:14:32.617Z,12.07
2023-03-19T17:17:03.609Z,11.96
2023-03-19T17:19:37.242Z,11.87
2023-03-19T17:22:14.034Z,11.79
2023-03-19T17:24:44.348Z,11.71
2023-03-19T17:27:15.486Z,11.63
2023-03-19T17:29:45.812Z,11.52
2023-03-19T17:32:20.396Z,11.43
2023-03-19T17:34:49.901Z,11.35
2023-03-19T17:37:17.184Z,11.26
2023-03-19T17:39:47.124Z,11.19
2023-03-19T17:42:23.637Z,11.09
2023-03-19T17:44:52.235Z,11.04
2023-03-19T17:47:22.688Z,11.00
2023-03-19T17:49:52.854Z,10.97
2023-03-19T17:52:23.543Z,10.90
2023-03-19T17:54:53.553Z,10.85
2023-03-19T17:57:23.457Z,10.79
2023-03-19T17:59:53.174Z,10.74
2023-03-19T18:02:32.782Z,10.66
2023-03-19T18:05:04.133Z,10.57
2023-03-19T18:07:33.820Z,10.50
2023-03-19T18:10:03.739Z,10.42
2023-03-19T18:12:33.342Z,10.35
2023-03-19T18:15:03.690Z,10.27
2023-03-19T18:17:34.051Z,10.22
2023-03-19T18:20:06.212Z,10.17
2023-03-19T18:22:36.313Z,10.11
2023-03-19T18:25:07.334Z,10.06
2023-03-19T18:27:37.040Z,9.99
2023-03-19T18:30:08.687Z,9.93
2023-03-19T18:32:44.251Z,9.89
2023-03-19T18:35:42.683Z,9.85
2023-03-19T18:38:24.061Z,9.82
2023-03-19T18:40:55.000Z,9.77
2023-03-19T18:43:25.246Z,9.75
2023-03-19T18:46:59.013Z,9.72
2023-03-19T18:49:28.628Z,9.70
2023-03-19T18:52:03.130Z,9.68
2023-03-19T18:54:33.734Z,9.65
2023-03-19T18:57:04.010Z,9.61
2023-03-19T18:59:34.453Z,9.59
2023-03-19T19:02:33.463Z,9.57
2023-03-19T19:05:04.646Z,9.57
2023-03-19T19:07:34.197Z,9.54
2023-03-19T19:10:05.402Z,9.53
2023-03-19T19:12:38.593Z,9.51
2023-03-19T19:15:25.559Z,9.48
2023-03-19T19:17:56.225Z,9.47
2023-03-19T19:20:29.895Z,9.44
2023-03-19T19:23:00.037Z,9.52
2023-03-19T19:25:30.804Z,9.50
2023-03-19T19:28:20.425Z,9.49
2023-03-19T19:30:50.005Z,9.48
2023-03-19T19:33:24.732Z,9.46
2023-03-19T19:35:55.590Z,9.46
2023-03-19T19:38:24.649Z,9.53
2023-03-19T19:40:58.260Z,9.60
2023-03-19T19:43:31.479Z,9.57
2023-03-19T19:46:01.581Z,9.56
2023-03-19T19:48:31.563Z,9.55
2023-03-19T19:51:00.908Z,9.53
2023-03-19T19:53:31.151Z,9.52
2023-03-19T19:56:16.459Z,9.53
2023-03-19T19:58:50.634Z,9.51
2023-03-19T20:01:25.768Z,9.49
2023-03-19T20:03:55.982Z,9.46
2023-03-19T20:06:27.127Z,9.47
2023-03-19T20:08:57.275Z,9.45
2023-03-19T20:11:27.367Z,9.43
2023-03-19T20:13:57.577Z,9.44
2023-03-19T20:16:28.866Z,9.46
2023-03-19T20:18:58.952Z,9.44
2023-03-19T20:21:29.639Z,9.43
2023-03-19T20:23:58.975Z,9.42
2023-03-19T20:26:30.387Z,9.45
2023-03-19T20:29:00.567Z,9.42
2023-03-19T20:31:32.242Z,9.39
2023-03-19T20:34:01.695Z,9.40
2023-03-19T20:36:28.923Z,9.38
2023-03-19T20:38:59.013Z,9.56
2023-03-19T20:41:29.097Z,9.56
2023-03-19T20:44:05.701Z,9.70
2023-03-19T20:46:34.955Z,9.74
2023-03-19T20:49:04.006Z,9.77
2023-03-19T20:51:33.288Z,9.76
2023-03-19T20:54:00.874Z,9.70
2023-03-19T20:56:30.792Z,9.57
2023-03-19T20:59:00.898Z,9.50
2023-03-19T21:01:31.274Z,9.48
2023-03-19T21:04:01.364Z,9.47
2023-03-19T21:06:46.143Z,9.47
2023-03-19T21:09:24.291Z,9.46
2023-03-19T21:11:52.911Z,9.44
2023-03-19T21:14:23.605Z,9.42
2023-03-19T21:16:52.690Z,9.40
2023-03-19T21:19:20.439Z,9.38
2023-03-19T21:21:50.859Z,9.54
2023-03-19T21:24:22.314Z,9.51
2023-03-19T21:26:54.855Z,9.49
2023-03-19T21:29:34.271Z,9.48
2023-03-19T21:32:13.720Z,9.51
2023-03-19T21:34:48.948Z,9.48
2023-03-19T21:37:20.297Z,9.48
2023-03-19T21:39:50.321Z,9.44
2023-03-19T21:42:23.842Z,9.40
2023-03-19T21:45:00.104Z,9.35
2023-03-19T21:47:30.344Z,9.30
2023-03-19T21:50:00.527Z,9.30
2023-03-19T21:52:30.854Z,9.27
2023-03-19T21:55:01.492Z,9.25
2023-03-19T21:57:32.522Z,9.25
2023-03-19T22:00:04.305Z,9.27
2023-03-19T22:02:46.798Z,9.42
2023-03-19T22:05:28.271Z,9.37
2023-03-19T22:07:56.695Z,9.38
2023-03-19T22:10:30.033Z,9.37
2023-03-19T22:13:00.557Z,9.41
2023-03-19T22:15:38.061Z,9.44
2023-03-19T22:18:15.841Z,9.44
2023-03-19T22:20:50.522Z,9.48
2023-03-19T22:23:21.796Z,9.42
2023-03-19T22:25:53.677Z,9.36
2023-03-19T22:28:34.609Z,9.29
2023-03-19T22:31:05.261Z,9.25
2023-03-19T22:33:33.042Z,9.21
2023-03-19T22:36:01.516Z,9.17
2023-03-19T22:38:29.901Z,9.13
2023-03-19T22:40:58.560Z,9.10
2023-03-19T22:43:36.266Z,9.06
2023-03-19T22:46:16.627Z,9.03
2023-03-19T22:48:50.228Z,9.03
2023-03-19T22:51:27.420Z,9.01
2023-03-19T22:53:57.538Z,9.01
2023-03-19T22:56:27.565Z,8.96
2023-03-19T22:58:57.660Z,8.94
2023-03-19T23:01:43.721Z,8.91
2023-03-19T23:04:27.635Z,8.86
2023-03-19T23:07:00.921Z,8.82
2023-03-19T23:09:38.891Z,8.77
2023-03-19T23:12:13.148Z,8.76
2023-03-19T23:14:43.396Z,8.71
2023-03-19T23:17:17.679Z,8.69
2023-03-19T23:19:47.768Z,8.66
2023-03-19T23:22:17.382Z,8.64
2023-03-19T23:24:44.983Z,8.62
2023-03-19T23:27:26.331Z,8.61
2023-03-19T23:29:56.999Z,8.58
2023-03-19T23:32:26.701Z,8.56
2023-03-19T23:35:01.275Z,8.53
2023-03-19T23:37:32.608Z,8.51
2023-03-19T23:40:01.724Z,8.48
2023-03-19T23:42:32.564Z,8.47
2023-03-19T23:45:04.411Z,8.45
2023-03-19T23:47:34.938Z,8.41
2023-03-19T23:50:03.885Z,8.39
2023-03-19T23:52:33.899Z,8.37
2023-03-19T23:55:03.882Z,8.34
2023-03-19T23:57:35.020Z,8.30
